Portada
METAR-TAF:

METAR-TAF

Aeroports :

Lanzhou, Xina

latitud: 36-02N, longitud: 103-52E, altitud: 1518 m

Observació

L'informe es va fer fa 32 minuts, a les 10:00 UTC
Vent 6 kt del Est/Sud-Est, variant entre Est i Sud/Sud-Est
Temperatura 4°C
Humitat 22%
Pressió 1027 hPa
Visibilitat 10 km o més
sense núvols per sota de 1500 mi sense presència de cumulonimbus.

METAR: ZLLL 211000Z 11003MPS 080V150 CAVOK 04/M16 Q1027 NOSIG

Hora: 18:32 (10:32 UTC)

Pronòstic

L'informe es va fer fa 7 hores i 31 minuts, a les 03:01 UTC
Pronòstic vàlid del 21 a les 06 UTC al 22 a les 06 UTC
Vent 6 kt del Sud
Visibilitat: 6000 m

TAF: ZLLL 210301Z 2106/2206 18003MPS 6000 NSC TX05/2108Z TNM11/2123Z

Observacions i pronòstics meteorològics de més de 4000 aeroports (METAR i TAF).

Les estacions disponibles són els punts grocs i vermells al mapa.

Posi el ratolí al punt desitjat per veure el nom de l'estació.

Feu clic per veure les observacions i els pronòstics meteorològics.

Per canviar el mapa: feu clic els botons verds amb una creu de color negre per apropar; al botó verd amb un guió per allunyar la imatge; o en les fletxes verdes per a mapes adjacents.


METAR-TAF: